createdAt,value
2023-03-05T00:00:49.935Z,64.63
2023-03-05T00:03:16.942Z,55.85
2023-03-05T00:05:43.748Z,72.10
2023-03-05T00:08:10.396Z,69.47
2023-03-05T00:10:37.047Z,55.08
2023-03-05T00:13:03.733Z,69.35
2023-03-05T00:15:30.433Z,71.68
2023-03-05T00:17:57.098Z,50.58
2023-03-05T00:20:23.879Z,61.85
2023-03-05T00:22:50.554Z,54.38
2023-03-05T00:25:17.312Z,67.00
2023-03-05T00:27:44.170Z,59.53
2023-03-05T00:30:11.733Z,67.35
2023-03-05T00:32:38.598Z,64.63
2023-03-05T00:35:05.905Z,69.93
2023-03-05T00:37:32.989Z,64.78
2023-03-05T00:39:59.720Z,63.70
2023-03-05T00:42:26.503Z,63.78
2023-03-05T00:44:53.254Z,51.17
2023-03-05T00:47:19.987Z,68.38
2023-03-05T00:49:46.791Z,45.78
2023-03-05T00:52:13.530Z,68.80
2023-03-05T00:54:40.241Z,46.03
2023-03-05T00:57:06.946Z,53.85
2023-03-05T00:59:33.635Z,69.57
2023-03-05T01:02:00.442Z,74.70
2023-03-05T01:04:29.347Z,65.60
2023-03-05T01:06:56.141Z,51.63
2023-03-05T01:09:25.139Z,72.10
2023-03-05T01:11:53.246Z,70.85
2023-03-05T01:14:20.660Z,64.13
2023-03-05T01:19:16.190Z,62.25
2023-03-05T01:21:43.032Z,65.25
2023-03-05T01:24:10.023Z,71.05
2023-03-05T01:26:36.788Z,71.10
2023-03-05T01:29:03.944Z,71.32
2023-03-05T01:31:30.852Z,69.55
2023-03-05T01:33:57.567Z,81.60
2023-03-05T01:36:25.076Z,66.80
2023-03-05T01:38:52.213Z,69.18
2023-03-05T01:41:19.599Z,66.25
2023-03-05T01:46:16.865Z,65.45
2023-03-05T01:48:48.373Z,65.40
2023-03-05T01:51:16.108Z,70.38
2023-03-05T01:53:43.046Z,66.97
2023-03-05T01:56:09.854Z,65.65
2023-03-05T01:58:39.704Z,81.68
2023-03-05T02:01:06.784Z,71.05
2023-03-05T02:03:34.688Z,73.10
2023-03-05T02:06:01.391Z,71.80
2023-03-05T02:08:28.175Z,65.78
2023-03-05T02:10:58.647Z,70.70
2023-03-05T02:13:32.439Z,67.13
2023-03-05T02:16:00.570Z,72.80
2023-03-05T02:18:27.568Z,71.25
2023-03-05T02:21:00.313Z,71.85
2023-03-05T02:23:30.968Z,65.45
2023-03-05T02:25:57.671Z,71.35
2023-03-05T02:28:34.144Z,67.65
2023-03-05T02:31:01.256Z,66.40
2023-03-05T02:33:27.969Z,64.72
2023-03-05T02:35:54.765Z,66.88
2023-03-05T02:38:21.769Z,75.63
2023-03-05T02:40:48.488Z,68.13
2023-03-05T02:43:17.033Z,66.25
2023-03-05T02:45:43.996Z,71.68
2023-03-05T02:48:10.678Z,70.43
2023-03-05T02:50:39.651Z,66.07
2023-03-05T02:53:06.727Z,63.83
2023-03-05T02:55:33.651Z,62.25
2023-03-05T02:58:00.670Z,63.63
2023-03-05T03:00:27.968Z,66.15
2023-03-05T03:05:22.419Z,67.50
2023-03-05T03:07:49.744Z,69.30
2023-03-05T03:12:45.148Z,67.18
2023-03-05T03:15:14.100Z,64.20
2023-03-05T03:17:40.839Z,77.65
2023-03-05T03:20:09.779Z,67.57
2023-03-05T03:22:37.004Z,62.53
2023-03-05T03:25:04.821Z,67.80
2023-03-05T03:27:31.625Z,64.32
2023-03-05T03:30:02.556Z,62.33
2023-03-05T03:32:29.717Z,64.97
2023-03-05T03:34:56.475Z,72.18
2023-03-05T03:37:23.241Z,80.32
2023-03-05T03:39:49.894Z,52.58
2023-03-05T03:42:20.395Z,44.65
2023-03-05T03:44:48.010Z,78.03
2023-03-05T03:47:14.717Z,69.38
2023-03-05T03:49:41.522Z,67.40
2023-03-05T03:52:08.635Z,73.22
2023-03-05T03:54:35.815Z,71.32
2023-03-05T03:57:02.633Z,73.72
2023-03-05T03:59:29.373Z,53.35
2023-03-05T04:01:56.022Z,53.63
2023-03-05T04:04:22.825Z,66.47
2023-03-05T04:06:49.572Z,70.78
2023-03-05T04:09:16.252Z,67.43
2023-03-05T04:11:42.972Z,69.43
2023-03-05T04:14:09.701Z,66.47
2023-03-05T04:16:36.397Z,49.38
2023-03-05T04:19:03.072Z,49.65
2023-03-05T04:21:29.821Z,52.30
2023-03-05T04:23:56.511Z,71.35
2023-03-05T04:26:23.233Z,68.20
2023-03-05T04:28:49.902Z,56.72
2023-03-05T04:31:17.396Z,71.22
2023-03-05T04:33:44.171Z,67.68
2023-03-05T04:36:10.845Z,73.10
2023-03-05T04:38:37.492Z,51.40
2023-03-05T04:41:04.327Z,82.38
2023-03-05T04:43:31.019Z,71.88
2023-03-05T04:45:57.684Z,52.65
2023-03-05T04:48:24.375Z,48.83
2023-03-05T04:50:51.042Z,51.13
2023-03-05T04:53:17.760Z,74.85
2023-03-05T04:55:44.442Z,71.18
2023-03-05T04:58:11.174Z,61.83
2023-03-05T05:00:38.643Z,60.25
2023-03-05T05:03:05.435Z,77.00
2023-03-05T05:05:32.166Z,76.78
2023-03-05T05:07:59.173Z,58.83
2023-03-05T05:10:26.727Z,64.28
2023-03-05T05:12:53.469Z,73.45
2023-03-05T05:15:20.550Z,75.00
2023-03-05T05:17:47.900Z,75.07
2023-03-05T05:20:16.789Z,74.38
2023-03-05T05:22:44.005Z,71.45
2023-03-05T05:27:40.078Z,68.22
2023-03-05T05:30:07.842Z,76.18
2023-03-05T05:32:34.856Z,72.85
2023-03-05T05:35:02.134Z,77.15
2023-03-05T05:37:29.670Z,73.43
2023-03-05T05:39:56.414Z,70.35
2023-03-05T05:42:24.926Z,68.72
2023-03-05T05:44:51.638Z,63.08
2023-03-05T05:47:18.729Z,68.93
2023-03-05T05:49:45.497Z,79.10
2023-03-05T05:52:12.333Z,84.93
2023-03-05T05:54:39.341Z,78.53
2023-03-05T05:57:06.525Z,72.65
2023-03-05T05:59:33.270Z,73.57
2023-03-05T06:02:00.253Z,72.05
2023-03-05T06:04:26.995Z,70.20
2023-03-05T06:06:53.659Z,57.20
2023-03-05T06:09:20.733Z,70.95
2023-03-05T06:11:47.646Z,84.90
2023-03-05T06:14:14.414Z,78.65
2023-03-05T06:16:41.187Z,69.05
2023-03-05T06:19:11.596Z,73.88
2023-03-05T06:21:38.417Z,74.35
2023-03-05T06:24:05.564Z,64.93
2023-03-05T06:26:32.356Z,75.95
2023-03-05T06:28:59.235Z,77.30
2023-03-05T06:31:28.045Z,72.53
2023-03-05T06:33:57.539Z,69.47
2023-03-05T06:36:25.441Z,75.90
2023-03-05T06:38:53.466Z,80.50
2023-03-05T06:41:23.591Z,72.63
2023-03-05T06:43:50.347Z,78.90
2023-03-05T06:46:28.585Z,77.50
2023-03-05T06:48:57.552Z,77.30
2023-03-05T06:51:32.053Z,74.47
2023-03-05T06:54:08.024Z,72.15
2023-03-05T06:56:39.646Z,80.38
2023-03-05T06:59:06.894Z,72.47
2023-03-05T07:01:34.042Z,69.90
2023-03-05T07:04:02.937Z,72.85
2023-03-05T07:06:33.003Z,71.88
2023-03-05T07:09:03.275Z,82.28
2023-03-05T07:11:30.544Z,75.20
2023-03-05T07:13:57.522Z,75.32
2023-03-05T07:16:27.335Z,70.15
2023-03-05T07:18:54.785Z,82.68
2023-03-05T07:21:23.976Z,80.68
2023-03-05T07:23:53.216Z,79.75
2023-03-05T07:26:20.393Z,73.13
2023-03-05T07:28:47.171Z,74.60
2023-03-05T07:31:16.865Z,71.82
2023-03-05T07:33:43.596Z,70.80
2023-03-05T07:36:12.025Z,68.57
2023-03-05T07:38:38.902Z,73.93
2023-03-05T07:41:09.729Z,71.20
2023-03-05T07:43:36.592Z,76.50
2023-03-05T07:46:08.599Z,67.68
2023-03-05T07:48:35.781Z,76.30
2023-03-05T07:51:07.534Z,78.05
2023-03-05T07:53:34.270Z,82.03
2023-03-05T07:56:00.907Z,74.28
2023-03-05T07:58:27.557Z,76.88
2023-03-05T08:00:54.292Z,79.43
2023-03-05T08:03:21.019Z,77.97
2023-03-05T08:05:47.738Z,71.57
2023-03-05T08:08:14.646Z,53.70
2023-03-05T08:10:41.309Z,70.63
2023-03-05T08:13:08.252Z,50.53
2023-03-05T08:15:36.881Z,67.38
2023-03-05T08:18:04.406Z,70.68
2023-03-05T08:20:31.117Z,73.10
2023-03-05T08:22:57.771Z,49.92
2023-03-05T08:25:24.472Z,59.72
2023-03-05T08:27:51.173Z,68.55
2023-03-05T08:30:20.306Z,71.07
2023-03-05T08:32:49.428Z,64.45
2023-03-05T08:35:16.093Z,72.35
2023-03-05T08:37:42.785Z,64.07
2023-03-05T08:40:10.736Z,66.53
2023-03-05T08:42:37.429Z,65.78
2023-03-05T08:45:04.312Z,57.13
2023-03-05T08:47:30.998Z,63.70
2023-03-05T08:49:58.424Z,46.22
2023-03-05T08:54:51.912Z,64.30
2023-03-05T08:57:19.023Z,62.83
2023-03-05T08:59:45.665Z,55.28
2023-03-05T09:02:13.277Z,54.88
2023-03-05T09:04:40.388Z,65.70
2023-03-05T09:07:07.274Z,52.75
2023-03-05T09:09:34.030Z,53.22
2023-03-05T09:12:01.645Z,52.72
2023-03-05T09:14:29.179Z,54.17
2023-03-05T09:16:56.663Z,44.55
2023-03-05T09:19:23.911Z,52.13
2023-03-05T09:21:50.605Z,46.08
2023-03-05T09:24:17.283Z,51.60
2023-03-05T09:26:44.168Z,43.83
2023-03-05T09:29:10.918Z,43.53
2023-03-05T09:31:37.750Z,34.83
2023-03-05T09:34:05.646Z,46.97
2023-03-05T09:36:33.587Z,45.78
2023-03-05T09:39:00.234Z,49.63
2023-03-05T09:41:53.407Z,44.90
2023-03-05T09:44:28.810Z,44.75
2023-03-05T09:47:03.444Z,50.40
2023-03-05T09:49:52.853Z,42.75
2023-03-05T09:52:31.665Z,42.08
2023-03-05T09:54:58.895Z,39.42
2023-03-05T09:57:57.865Z,44.80
2023-03-05T10:00:41.927Z,41.17
2023-03-05T10:03:30.088Z,48.42
2023-03-05T10:06:11.163Z,45.42
2023-03-05T10:08:55.070Z,40.83
2023-03-05T10:11:36.367Z,35.70
2023-03-05T10:14:03.820Z,28.08
2023-03-05T10:17:17.079Z,29.27
2023-03-05T10:20:04.084Z,29.00
2023-03-05T10:23:01.725Z,20.92
2023-03-05T10:25:55.668Z,24.35
2023-03-05T10:29:03.214Z,21.98
2023-03-05T10:31:53.459Z,26.05
2023-03-05T10:34:37.950Z,26.35
2023-03-05T10:37:44.638Z,20.38
2023-03-05T10:40:35.076Z,27.60
2023-03-05T10:43:46.518Z,25.85
2023-03-05T10:46:16.904Z,25.48
2023-03-05T10:48:50.900Z,26.25
2023-03-05T10:51:38.192Z,32.85
2023-03-05T10:54:28.998Z,32.00
2023-03-05T10:57:19.253Z,30.33
2023-03-05T10:59:54.716Z,35.67
2023-03-05T11:02:22.497Z,38.20
2023-03-05T11:04:50.402Z,35.20
2023-03-05T11:07:17.019Z,32.08
2023-03-05T11:10:03.602Z,29.65
2023-03-05T11:12:36.265Z,28.00
2023-03-05T11:15:07.325Z,31.05
2023-03-05T11:17:37.722Z,28.92
2023-03-05T11:20:29.482Z,28.63
2023-03-05T11:23:04.855Z,31.55
2023-03-05T11:25:34.369Z,34.88
2023-03-05T11:28:02.428Z,31.00
2023-03-05T11:30:37.169Z,27.80
2023-03-05T11:33:10.495Z,25.83
2023-03-05T11:35:39.976Z,37.50
2023-03-05T11:38:18.040Z,31.48
2023-03-05T11:43:17.386Z,25.27
2023-03-05T11:45:46.084Z,26.67
2023-03-05T11:48:18.171Z,31.48
2023-03-05T11:50:49.150Z,28.15
2023-03-05T11:53:24.470Z,23.83
2023-03-05T11:56:18.991Z,29.63
2023-03-05T11:58:58.821Z,22.95
2023-03-05T12:01:29.240Z,23.88
2023-03-05T12:03:56.592Z,22.25
2023-03-05T12:09:06.822Z,21.67
2023-03-05T12:11:34.523Z,23.17
2023-03-05T12:14:24.302Z,22.08
2023-03-05T12:17:07.949Z,19.15
2023-03-05T12:19:47.113Z,18.70
2023-03-05T12:22:37.294Z,18.95
2023-03-05T12:25:27.233Z,18.23
2023-03-05T12:27:54.249Z,18.60
2023-03-05T12:30:42.341Z,21.58
2023-03-05T12:33:35.447Z,16.00
2023-03-05T12:36:17.668Z,21.13
2023-03-05T12:38:47.554Z,19.80
2023-03-05T12:41:23.212Z,21.65
2023-03-05T12:44:19.248Z,17.67
2023-03-05T12:47:11.522Z,18.83
2023-03-05T12:49:39.689Z,18.67
2023-03-05T12:52:21.472Z,16.38
2023-03-05T12:55:16.249Z,17.45
2023-03-05T12:57:45.637Z,19.90
2023-03-05T13:00:25.829Z,23.33
2023-03-05T13:02:58.529Z,19.23
2023-03-05T13:05:34.292Z,20.15
2023-03-05T13:08:21.859Z,17.67
2023-03-05T13:11:00.587Z,22.98
2023-03-05T13:13:31.061Z,22.83
2023-03-05T13:15:58.193Z,23.15
2023-03-05T13:18:30.821Z,20.77
2023-03-05T13:21:06.436Z,20.95
2023-03-05T13:23:34.319Z,21.90
2023-03-05T13:26:20.558Z,18.40
2023-03-05T13:29:14.428Z,26.15
2023-03-05T13:31:45.971Z,20.65
2023-03-05T13:34:24.549Z,23.98
2023-03-05T13:37:21.820Z,22.40
2023-03-05T13:39:52.031Z,23.70
2023-03-05T13:42:40.636Z,18.73
2023-03-05T13:48:02.134Z,27.02
2023-03-05T13:50:36.052Z,18.73
2023-03-05T13:53:23.689Z,21.45
2023-03-05T13:55:52.406Z,20.70
2023-03-05T13:58:52.241Z,21.40
2023-03-05T14:01:42.042Z,20.40
2023-03-05T14:04:18.113Z,21.75
2023-03-05T14:06:53.894Z,21.92
2023-03-05T14:09:40.798Z,22.90
2023-03-05T14:12:33.259Z,22.25
2023-03-05T14:15:02.290Z,23.25
2023-03-05T14:17:37.742Z,22.90
2023-03-05T14:20:25.760Z,22.50
2023-03-05T14:22:58.316Z,24.08
2023-03-05T14:25:33.951Z,21.55
2023-03-05T14:28:06.515Z,24.00
2023-03-05T14:30:35.953Z,23.67
2023-03-05T14:33:04.158Z,21.83
2023-03-05T14:35:31.154Z,24.45
2023-03-05T14:37:59.779Z,25.50
2023-03-05T14:40:32.231Z,30.58
2023-03-05T14:43:01.164Z,23.20
2023-03-05T14:45:37.267Z,24.60
2023-03-05T14:48:06.459Z,27.50
2023-03-05T14:50:36.799Z,28.27
2023-03-05T14:53:10.094Z,23.25
2023-03-05T14:55:38.352Z,24.95
2023-03-05T14:58:38.526Z,26.67
2023-03-05T15:01:05.309Z,25.50
2023-03-05T15:03:32.960Z,25.88
2023-03-05T15:05:59.733Z,26.70
2023-03-05T15:08:29.696Z,23.05
2023-03-05T15:10:56.783Z,21.83
2023-03-05T15:13:23.894Z,26.48
2023-03-05T15:15:51.647Z,22.95
2023-03-05T15:18:21.482Z,25.25
2023-03-05T15:20:49.409Z,24.35
2023-03-05T15:23:16.126Z,27.05
2023-03-05T15:25:42.924Z,26.90
2023-03-05T15:28:09.942Z,22.02
2023-03-05T15:30:43.472Z,26.38
2023-03-05T15:33:13.822Z,26.55
2023-03-05T15:35:41.078Z,25.33
2023-03-05T15:40:34.835Z,25.63
2023-03-05T15:43:01.920Z,27.77
2023-03-05T15:45:31.240Z,32.05
2023-03-05T15:47:58.321Z,31.13
2023-03-05T15:50:25.233Z,26.13
2023-03-05T15:52:52.422Z,24.23
2023-03-05T15:55:19.676Z,26.23
2023-03-05T15:57:48.750Z,26.33
2023-03-05T16:00:18.116Z,32.42
2023-03-05T16:02:44.798Z,26.13
2023-03-05T16:05:11.583Z,22.55
2023-03-05T16:07:41.928Z,23.27
2023-03-05T16:10:13.508Z,29.98
2023-03-05T16:12:42.807Z,30.73
2023-03-05T16:15:13.482Z,28.20
2023-03-05T16:17:42.560Z,30.27
2023-03-05T16:20:12.273Z,32.53
2023-03-05T16:22:39.347Z,32.13
2023-03-05T16:25:06.806Z,33.00
2023-03-05T16:27:33.805Z,35.95
2023-03-05T16:30:00.474Z,32.78
2023-03-05T16:32:27.202Z,28.35
2023-03-05T16:34:53.866Z,32.60
2023-03-05T16:37:22.673Z,30.90
2023-03-05T16:39:50.010Z,28.65
2023-03-05T16:44:44.709Z,25.35
2023-03-05T16:47:12.237Z,29.92
2023-03-05T16:49:40.040Z,28.33
2023-03-05T16:52:18.229Z,30.58
2023-03-05T16:54:46.115Z,29.02
2023-03-05T16:57:12.817Z,32.58
2023-03-05T16:59:39.860Z,38.65
2023-03-05T17:02:06.681Z,26.30
2023-03-05T17:04:33.431Z,29.40
2023-03-05T17:07:00.133Z,31.42
2023-03-05T17:09:26.888Z,29.77
2023-03-05T17:11:54.169Z,27.85
2023-03-05T17:16:48.151Z,34.80
2023-03-05T17:19:15.916Z,28.75
2023-03-05T17:21:42.904Z,27.73
2023-03-05T17:24:10.501Z,29.70
2023-03-05T17:26:37.712Z,30.38
2023-03-05T17:29:05.613Z,28.60
2023-03-05T17:31:32.409Z,29.80
2023-03-05T17:33:59.186Z,28.45
2023-03-05T17:36:26.381Z,29.88
2023-03-05T17:38:54.893Z,27.40
2023-03-05T17:41:22.077Z,27.88
2023-03-05T17:43:48.903Z,26.52
2023-03-05T17:46:15.964Z,33.88
2023-03-05T17:48:42.807Z,33.35
2023-03-05T17:51:13.508Z,27.50
2023-03-05T17:53:40.634Z,29.98
2023-03-05T17:56:11.446Z,26.80
2023-03-05T17:58:38.862Z,25.17
2023-03-05T18:03:33.536Z,29.15
2023-03-05T18:06:00.222Z,19.38
2023-03-05T18:08:26.907Z,29.90
2023-03-05T18:10:54.342Z,21.17
2023-03-05T18:13:21.046Z,26.85
2023-03-05T18:15:47.888Z,28.52
2023-03-05T18:18:18.278Z,24.88
2023-03-05T18:20:45.576Z,27.05
2023-03-05T18:23:12.600Z,25.77
2023-03-05T18:25:39.474Z,26.67
2023-03-05T18:28:11.715Z,29.05
2023-03-05T18:30:40.515Z,25.92
2023-03-05T18:33:08.667Z,27.45
2023-03-05T18:35:36.449Z,31.85
2023-03-05T18:38:03.133Z,24.17
2023-03-05T18:40:32.572Z,25.42
2023-03-05T18:43:00.941Z,25.40
2023-03-05T18:45:28.418Z,25.92
2023-03-05T18:47:56.638Z,30.73
2023-03-05T18:50:26.213Z,24.75
2023-03-05T18:52:53.677Z,27.80
2023-03-05T18:55:23.477Z,27.83
2023-03-05T18:57:50.443Z,26.90
2023-03-05T19:00:19.426Z,30.13
2023-03-05T19:02:46.199Z,25.98
2023-03-05T19:05:14.492Z,19.58
2023-03-05T19:07:41.563Z,23.67
2023-03-05T19:10:10.526Z,27.23
2023-03-05T19:12:45.481Z,25.63
2023-03-05T19:15:13.441Z,24.90
2023-03-05T19:17:40.324Z,25.25
2023-03-05T19:20:08.253Z,25.42
2023-03-05T19:22:35.042Z,28.60
2023-03-05T19:25:02.181Z,25.65
2023-03-05T19:27:28.940Z,25.95
2023-03-05T19:29:55.692Z,25.80
2023-03-05T19:32:23.527Z,27.90
2023-03-05T19:34:50.739Z,23.70
2023-03-05T19:37:18.197Z,27.55
2023-03-05T19:42:11.738Z,32.63
2023-03-05T19:44:38.777Z,25.67
2023-03-05T19:47:06.106Z,25.90
2023-03-05T19:49:32.979Z,27.42
2023-03-05T19:52:00.089Z,29.77
2023-03-05T19:54:26.770Z,29.75
2023-03-05T19:56:55.524Z,26.48
2023-03-05T19:59:23.006Z,24.92
2023-03-05T20:01:50.058Z,26.05
2023-03-05T20:04:20.348Z,30.15
2023-03-05T20:06:47.169Z,26.75
2023-03-05T20:09:14.712Z,31.15
2023-03-05T20:11:42.051Z,34.72
2023-03-05T20:16:37.734Z,28.95
2023-03-05T20:19:06.648Z,35.13
2023-03-05T20:21:36.211Z,31.45
2023-03-05T20:24:09.480Z,29.67
2023-03-05T20:26:37.805Z,34.33
2023-03-05T20:29:05.356Z,33.45
2023-03-05T20:31:37.176Z,31.67
2023-03-05T20:34:06.504Z,32.20
2023-03-05T20:36:34.701Z,33.67
2023-03-05T20:39:04.992Z,32.78
2023-03-05T20:41:33.004Z,33.42
2023-03-05T20:43:59.782Z,32.33
2023-03-05T20:46:29.043Z,23.90
2023-03-05T20:48:58.968Z,31.48
2023-03-05T20:51:28.590Z,33.08
2023-03-05T20:53:58.910Z,39.92
2023-03-05T20:56:27.837Z,31.95
2023-03-05T20:58:59.327Z,42.00
2023-03-05T21:01:51.844Z,33.47
2023-03-05T21:04:18.524Z,31.50
2023-03-05T21:06:45.226Z,37.53
2023-03-05T21:09:11.977Z,33.08
2023-03-05T21:11:38.668Z,35.80
2023-03-05T21:14:05.339Z,38.65
2023-03-05T21:16:32.051Z,35.72
2023-03-05T21:18:58.900Z,45.33
2023-03-05T21:21:25.615Z,29.20
2023-03-05T21:23:53.344Z,33.97
2023-03-05T21:26:20.301Z,40.80
2023-03-05T21:28:47.291Z,47.25
2023-03-05T21:31:17.927Z,41.53
2023-03-05T21:33:44.919Z,42.22
2023-03-05T21:36:11.746Z,39.05
2023-03-05T21:38:38.427Z,39.60
2023-03-05T21:41:05.478Z,36.97
2023-03-05T21:43:32.667Z,34.97
2023-03-05T21:46:01.139Z,31.90
2023-03-05T21:48:27.963Z,33.90
2023-03-05T21:50:55.259Z,35.15
2023-03-05T21:56:04.150Z,36.65
2023-03-05T21:58:32.888Z,40.08
2023-03-05T22:01:00.137Z,39.10
2023-03-05T22:03:28.108Z,35.53
2023-03-05T22:05:55.772Z,39.08
2023-03-05T22:08:23.136Z,34.05
2023-03-05T22:13:17.870Z,41.28
2023-03-05T22:15:55.865Z,39.40
2023-03-05T22:18:28.841Z,43.08
2023-03-05T22:20:57.398Z,35.00
2023-03-05T22:23:27.165Z,40.47
2023-03-05T22:25:58.470Z,42.72
2023-03-05T22:28:26.650Z,40.28
2023-03-05T22:30:53.727Z,44.42
2023-03-05T22:33:22.705Z,42.97
2023-03-05T22:35:50.152Z,45.22
2023-03-05T22:38:16.937Z,40.45
2023-03-05T22:40:46.083Z,38.58
2023-03-05T22:43:13.903Z,50.97
2023-03-05T22:45:41.075Z,42.15
2023-03-05T22:50:37.804Z,38.85
2023-03-05T22:53:04.562Z,44.88
2023-03-05T22:55:31.220Z,39.00
2023-03-05T22:57:57.915Z,39.45
2023-03-05T23:00:26.574Z,36.00
2023-03-05T23:02:53.834Z,43.05
2023-03-05T23:07:47.430Z,42.80
2023-03-05T23:10:27.050Z,39.78
2023-03-05T23:12:55.043Z,37.78
2023-03-05T23:15:27.594Z,43.58
2023-03-05T23:17:55.028Z,44.83
2023-03-05T23:22:49.274Z,41.85
2023-03-05T23:25:18.408Z,32.70
2023-03-05T23:27:45.099Z,42.30
2023-03-05T23:30:21.519Z,36.28
2023-03-05T23:32:54.547Z,43.10
2023-03-05T23:35:24.728Z,41.92
2023-03-05T23:37:52.763Z,41.15
2023-03-05T23:40:28.235Z,42.40
2023-03-05T23:42:54.970Z,41.15
2023-03-05T23:45:23.126Z,42.20
2023-03-05T23:47:51.090Z,38.33
2023-03-05T23:50:25.017Z,45.70
2023-03-05T23:52:53.959Z,43.83
2023-03-05T23:55:29.559Z,42.83
2023-03-05T23:57:56.479Z,38.33
